createdAt,value
2016-07-06T00:00:26.123Z,0
2016-07-06T00:01:26.173Z,0
2016-07-06T00:02:26.172Z,0
2016-07-06T00:03:26.154Z,0
2016-07-06T00:04:26.199Z,0
2016-07-06T00:05:26.182Z,0
2016-07-06T00:06:26.211Z,0
2016-07-06T00:07:26.200Z,0
2016-07-06T00:08:26.208Z,0
2016-07-06T00:09:26.210Z,0
2016-07-06T00:10:26.227Z,0
2016-07-06T00:11:26.264Z,0
2016-07-06T00:12:26.258Z,0
2016-07-06T00:13:26.250Z,0
2016-07-06T00:14:26.280Z,0
2016-07-06T00:15:26.291Z,0
2016-07-06T00:16:26.308Z,0
2016-07-06T00:17:26.309Z,0
2016-07-06T00:18:26.306Z,0
2016-07-06T00:19:26.311Z,0
2016-07-06T00:20:26.307Z,0
2016-07-06T00:21:26.352Z,0
2016-07-06T00:22:26.365Z,0
2016-07-06T00:23:26.351Z,0
2016-07-06T00:24:26.345Z,0
2016-07-06T00:25:26.365Z,0
2016-07-06T00:26:26.451Z,0
2016-07-06T00:27:26.374Z,0
2016-07-06T00:28:26.372Z,0
2016-07-06T00:29:26.397Z,0
2016-07-06T00:30:26.404Z,0
2016-07-06T00:31:26.436Z,0
2016-07-06T00:32:26.412Z,0
2016-07-06T00:33:26.420Z,0
2016-07-06T00:34:26.457Z,0
2016-07-06T00:35:27.071Z,0
2016-07-06T00:36:26.461Z,0
2016-07-06T00:37:26.478Z,0
2016-07-06T00:38:26.501Z,0
2016-07-06T00:39:26.486Z,0
2016-07-06T00:40:26.522Z,0
2016-07-06T00:41:26.538Z,0
2016-07-06T00:42:26.538Z,0
2016-07-06T00:43:26.544Z,0
2016-07-06T00:44:26.575Z,0
2016-07-06T00:45:26.552Z,0
2016-07-06T00:46:26.558Z,0
2016-07-06T00:47:26.592Z,0
2016-07-06T00:48:26.588Z,0
2016-07-06T00:49:26.603Z,0
2016-07-06T00:50:26.600Z,0
2016-07-06T00:51:26.628Z,0
2016-07-06T00:52:26.601Z,0
2016-07-06T00:53:26.629Z,0
2016-07-06T00:54:26.606Z,0
2016-07-06T00:55:26.652Z,0
2016-07-06T00:56:26.640Z,0
2016-07-06T00:57:26.656Z,0
2016-07-06T00:58:26.686Z,0
2016-07-06T00:59:26.683Z,0
2016-07-06T01:00:26.703Z,0
2016-07-06T01:01:26.718Z,0
2016-07-06T01:02:26.708Z,0
2016-07-06T01:03:26.718Z,0
2016-07-06T01:04:26.722Z,0
2016-07-06T01:05:27.362Z,0
2016-07-06T01:06:27.369Z,0
2016-07-06T01:07:26.794Z,0
2016-07-06T01:08:26.881Z,0
2016-07-06T01:09:27.003Z,0
2016-07-06T01:10:27.079Z,0
2016-07-06T01:11:27.099Z,0
2016-07-06T01:12:26.815Z,0
2016-07-06T01:13:26.826Z,0
2016-07-06T01:14:26.833Z,0
2016-07-06T01:15:26.824Z,0
2016-07-06T01:16:26.850Z,0
2016-07-06T01:17:26.873Z,0
2016-07-06T01:18:26.835Z,0
2016-07-06T01:19:26.896Z,0
2016-07-06T01:20:27.498Z,0
2016-07-06T01:21:26.881Z,0
2016-07-06T01:22:26.896Z,0
2016-07-06T01:23:26.909Z,0
2016-07-06T01:24:26.875Z,0
2016-07-06T01:25:26.918Z,0
2016-07-06T01:26:26.951Z,0
2016-07-06T01:27:26.969Z,0
2016-07-06T01:28:26.942Z,0
2016-07-06T01:29:26.931Z,0
2016-07-06T01:30:26.978Z,0
2016-07-06T01:31:26.994Z,0
2016-07-06T01:32:26.947Z,0
2016-07-06T01:33:26.978Z,0
2016-07-06T01:34:27.013Z,0
2016-07-06T01:35:27.019Z,0
2016-07-06T01:36:27.015Z,0
2016-07-06T01:37:27.030Z,0
2016-07-06T01:38:27.041Z,0
2016-07-06T01:39:27.083Z,0
2016-07-06T01:40:27.057Z,0
2016-07-06T01:41:27.074Z,0
2016-07-06T01:42:27.067Z,0
2016-07-06T01:43:27.078Z,0
2016-07-06T01:44:27.117Z,0
2016-07-06T01:45:27.110Z,0
2016-07-06T01:46:27.129Z,0
2016-07-06T01:47:27.121Z,0
2016-07-06T01:48:27.725Z,0
2016-07-06T01:49:27.171Z,0
2016-07-06T01:50:27.148Z,0
2016-07-06T01:51:27.156Z,0
2016-07-06T01:52:27.164Z,0
2016-07-06T01:53:27.168Z,0
2016-07-06T01:54:27.177Z,0
2016-07-06T01:55:27.191Z,0
2016-07-06T01:56:27.246Z,0
2016-07-06T01:57:27.193Z,0
2016-07-06T01:58:27.197Z,0
2016-07-06T01:59:27.233Z,0
2016-07-06T02:00:27.242Z,0
2016-07-06T02:01:27.251Z,0
2016-07-06T02:02:27.265Z,0
2016-07-06T02:03:27.279Z,0
2016-07-06T02:04:27.296Z,0
2016-07-06T02:05:27.288Z,0
2016-07-06T02:06:27.313Z,0
2016-07-06T02:07:27.312Z,0
2016-07-06T02:08:27.323Z,0
2016-07-06T02:09:27.352Z,0
2016-07-06T02:10:27.329Z,0
2016-07-06T02:11:27.955Z,0
2016-07-06T02:12:27.361Z,0
2016-07-06T02:13:27.380Z,0
2016-07-06T02:14:27.372Z,0
2016-07-06T02:15:27.382Z,0
2016-07-06T02:16:27.409Z,0
2016-07-06T02:17:27.401Z,0
2016-07-06T02:18:27.421Z,0
2016-07-06T02:19:27.418Z,0
2016-07-06T02:20:27.445Z,0
2016-07-06T02:21:27.454Z,0
2016-07-06T02:22:27.423Z,0
2016-07-06T02:23:28.070Z,0
2016-07-06T02:24:27.486Z,0
2016-07-06T02:25:27.509Z,0
2016-07-06T02:26:27.531Z,0
2016-07-06T02:27:27.497Z,0
2016-07-06T02:28:27.511Z,0
2016-07-06T02:29:27.519Z,0
2016-07-06T02:30:27.529Z,0
2016-07-06T02:31:27.533Z,0
2016-07-06T02:32:27.537Z,0
2016-07-06T02:33:27.520Z,0
2016-07-06T02:34:27.563Z,0
2016-07-06T02:35:27.563Z,0
2016-07-06T02:36:27.589Z,0
2016-07-06T02:37:27.583Z,0
2016-07-06T02:38:27.576Z,0
2016-07-06T02:39:27.607Z,0
2016-07-06T02:40:27.603Z,0
2016-07-06T02:41:27.617Z,0
2016-07-06T02:42:27.618Z,0
2016-07-06T02:43:27.642Z,0
2016-07-06T02:44:28.245Z,0
2016-07-06T02:45:27.675Z,0
2016-07-06T02:46:27.651Z,0
2016-07-06T02:47:27.685Z,0
2016-07-06T02:48:27.669Z,0
2016-07-06T02:49:27.679Z,0
2016-07-06T02:50:27.684Z,0
2016-07-06T02:51:27.695Z,0
2016-07-06T02:52:27.711Z,0
2016-07-06T02:53:27.744Z,0
2016-07-06T02:54:27.737Z,0
2016-07-06T02:55:27.746Z,0
2016-07-06T02:56:28.354Z,0
2016-07-06T02:57:27.757Z,0
2016-07-06T02:58:27.792Z,0
2016-07-06T02:59:27.773Z,0
2016-07-06T03:00:27.768Z,0
2016-07-06T03:01:27.792Z,0
2016-07-06T03:02:28.416Z,0
2016-07-06T03:03:27.836Z,0
2016-07-06T03:04:27.830Z,0
2016-07-06T03:05:27.829Z,0
2016-07-06T03:06:27.824Z,0
2016-07-06T03:07:27.853Z,0
2016-07-06T03:08:27.870Z,0
2016-07-06T03:09:27.825Z,0
2016-07-06T03:10:27.866Z,0
2016-07-06T03:11:27.879Z,0
2016-07-06T03:12:28.480Z,0
2016-07-06T03:13:27.882Z,0
2016-07-06T03:14:27.914Z,0
2016-07-06T03:15:27.908Z,0
2016-07-06T03:16:27.923Z,0
2016-07-06T03:17:27.904Z,0
2016-07-06T03:18:27.934Z,0
2016-07-06T03:19:27.956Z,0
2016-07-06T03:20:27.946Z,0
2016-07-06T03:21:27.946Z,0
2016-07-06T03:22:27.937Z,0
2016-07-06T03:23:27.981Z,0
2016-07-06T03:24:28.006Z,0
2016-07-06T03:25:28.013Z,0
2016-07-06T03:26:28.223Z,0
2016-07-06T03:27:28.055Z,0
2016-07-06T03:28:28.032Z,0
2016-07-06T03:29:28.043Z,0
2016-07-06T03:30:28.039Z,0
2016-07-06T03:31:28.074Z,0
2016-07-06T03:32:28.064Z,0
2016-07-06T03:33:28.091Z,0
2016-07-06T03:34:28.107Z,0
2016-07-06T03:35:28.106Z,0
2016-07-06T03:36:28.126Z,0
2016-07-06T03:37:28.104Z,0
2016-07-06T03:38:28.110Z,0
2016-07-06T03:39:28.142Z,0
2016-07-06T03:40:28.132Z,0
2016-07-06T03:41:28.171Z,0
2016-07-06T03:42:28.147Z,0
2016-07-06T03:43:28.164Z,4
2016-07-06T03:44:28.201Z,4
2016-07-06T03:45:28.195Z,4
2016-07-06T03:46:28.193Z,4
2016-07-06T03:47:28.209Z,4
2016-07-06T03:48:28.180Z,0
2016-07-06T03:49:28.214Z,0
2016-07-06T03:50:28.209Z,0
2016-07-06T03:51:28.200Z,4
2016-07-06T03:52:28.275Z,4
2016-07-06T03:53:28.266Z,0
2016-07-06T03:54:28.244Z,0
2016-07-06T03:55:28.911Z,0
2016-07-06T03:56:28.269Z,4
2016-07-06T03:57:28.875Z,4
2016-07-06T03:58:28.275Z,4
2016-07-06T03:59:28.923Z,4
2016-07-06T04:00:28.308Z,4
2016-07-06T04:01:28.331Z,4
2016-07-06T04:02:28.339Z,4
2016-07-06T04:03:28.928Z,4
2016-07-06T04:04:28.386Z,4
2016-07-06T04:05:28.973Z,4
2016-07-06T04:06:28.395Z,4
2016-07-06T04:07:28.375Z,4
2016-07-06T04:08:28.391Z,4
2016-07-06T04:09:28.391Z,4
2016-07-06T04:10:28.413Z,4
2016-07-06T04:11:28.416Z,4
2016-07-06T04:12:28.442Z,4
2016-07-06T04:13:28.430Z,8
2016-07-06T04:14:28.427Z,4
2016-07-06T04:15:28.464Z,8
2016-07-06T04:16:28.456Z,4
2016-07-06T04:17:28.499Z,4
2016-07-06T04:18:28.494Z,8
2016-07-06T04:19:28.520Z,4
2016-07-06T04:20:28.516Z,4
2016-07-06T04:21:28.515Z,4
2016-07-06T04:22:28.520Z,4
2016-07-06T04:23:28.524Z,0
2016-07-06T04:24:28.551Z,4
2016-07-06T04:25:28.556Z,4
2016-07-06T04:26:28.518Z,4
2016-07-06T04:27:28.558Z,4
2016-07-06T04:28:28.564Z,4
2016-07-06T04:29:28.571Z,8
2016-07-06T04:30:28.582Z,4
2016-07-06T04:31:28.605Z,4
2016-07-06T04:32:28.629Z,8
2016-07-06T04:33:28.648Z,4
2016-07-06T04:34:28.623Z,8
2016-07-06T04:35:28.643Z,8
2016-07-06T04:36:28.675Z,8
2016-07-06T04:37:28.657Z,8
2016-07-06T04:38:28.667Z,4
2016-07-06T04:39:28.695Z,8
2016-07-06T04:40:28.672Z,4
2016-07-06T04:41:28.681Z,8
2016-07-06T04:42:28.715Z,4
2016-07-06T04:43:28.713Z,8
2016-07-06T04:44:28.734Z,8
2016-07-06T04:45:28.731Z,4
2016-07-06T04:46:28.718Z,8
2016-07-06T04:47:28.756Z,8
2016-07-06T04:48:28.758Z,4
2016-07-06T04:49:28.767Z,8
2016-07-06T04:50:28.735Z,8
2016-07-06T04:51:28.772Z,12
2016-07-06T04:52:28.796Z,16
2016-07-06T04:53:28.760Z,8
2016-07-06T04:54:29.410Z,16
2016-07-06T04:55:28.819Z,12
2016-07-06T04:56:28.851Z,16
2016-07-06T04:57:28.802Z,16
2016-07-06T04:58:28.860Z,16
2016-07-06T04:59:28.853Z,8
2016-07-06T05:00:28.871Z,16
2016-07-06T05:01:29.453Z,16
2016-07-06T05:02:28.869Z,16
2016-07-06T05:03:28.892Z,16
2016-07-06T05:04:28.885Z,12
2016-07-06T05:05:28.882Z,12
2016-07-06T05:06:28.918Z,8
2016-07-06T05:07:28.909Z,12
2016-07-06T05:08:28.897Z,12
2016-07-06T05:09:28.935Z,16
2016-07-06T05:10:28.950Z,16
2016-07-06T05:11:28.965Z,8
2016-07-06T05:12:28.988Z,8
2016-07-06T05:13:28.983Z,12
2016-07-06T05:14:28.981Z,12
2016-07-06T05:15:28.985Z,12
2016-07-06T05:16:29.011Z,16
2016-07-06T05:17:29.042Z,16
2016-07-06T05:18:29.024Z,12
2016-07-06T05:19:29.017Z,16
2016-07-06T05:20:29.047Z,12
2016-07-06T05:21:29.078Z,12
2016-07-06T05:22:29.037Z,12
2016-07-06T05:23:29.070Z,12
2016-07-06T05:24:29.078Z,12
2016-07-06T05:25:29.086Z,12
2016-07-06T05:26:29.083Z,8
2016-07-06T05:27:29.143Z,12
2016-07-06T05:28:29.110Z,12
2016-07-06T05:29:29.107Z,12
2016-07-06T05:30:29.119Z,12
2016-07-06T05:31:29.167Z,12
2016-07-06T05:32:29.183Z,8
2016-07-06T05:33:29.164Z,8
2016-07-06T05:34:29.171Z,12
2016-07-06T05:35:29.209Z,12
2016-07-06T05:36:29.184Z,12
2016-07-06T05:37:29.216Z,12
2016-07-06T05:38:29.205Z,12
2016-07-06T05:39:29.207Z,16
2016-07-06T05:40:29.220Z,16
2016-07-06T05:41:29.221Z,16
2016-07-06T05:42:29.234Z,20
2016-07-06T05:43:29.252Z,12
2016-07-06T05:44:29.254Z,12
2016-07-06T05:45:29.255Z,12
2016-07-06T05:46:29.292Z,12
2016-07-06T05:47:29.290Z,12
2016-07-06T05:48:29.301Z,12
2016-07-06T05:49:29.315Z,12
2016-07-06T05:50:29.314Z,12
2016-07-06T05:51:29.333Z,12
2016-07-06T05:52:29.360Z,16
2016-07-06T05:53:29.325Z,16
2016-07-06T05:54:29.352Z,16
2016-07-06T05:55:29.366Z,24
2016-07-06T05:56:29.368Z,20
2016-07-06T05:57:29.378Z,16
2016-07-06T05:58:29.397Z,20
2016-07-06T05:59:29.387Z,16
2016-07-06T06:00:29.408Z,16
2016-07-06T06:01:29.399Z,12
2016-07-06T06:02:29.415Z,12
2016-07-06T06:03:29.418Z,12
2016-07-06T06:04:29.452Z,16
2016-07-06T06:05:29.449Z,12
2016-07-06T06:06:29.467Z,16
2016-07-06T06:07:29.462Z,24
2016-07-06T06:08:29.472Z,16
2016-07-06T06:09:30.089Z,16
2016-07-06T06:10:29.495Z,16
2016-07-06T06:11:29.499Z,16
2016-07-06T06:12:29.515Z,16
2016-07-06T06:13:29.517Z,16
2016-07-06T06:14:29.532Z,16
2016-07-06T06:15:29.514Z,16
2016-07-06T06:16:29.557Z,12
2016-07-06T06:17:29.582Z,12
2016-07-06T06:18:29.560Z,12
2016-07-06T06:19:29.592Z,12
2016-07-06T06:20:29.571Z,16
2016-07-06T06:21:29.606Z,20
2016-07-06T06:22:29.613Z,20
2016-07-06T06:23:29.598Z,20
2016-07-06T06:24:29.613Z,24
2016-07-06T06:25:29.603Z,16
2016-07-06T06:26:29.657Z,20
2016-07-06T06:27:29.705Z,24
2016-07-06T06:28:29.673Z,24
2016-07-06T06:29:29.669Z,24
2016-07-06T06:30:29.680Z,16
2016-07-06T06:31:29.698Z,24
2016-07-06T06:32:29.708Z,24
2016-07-06T06:33:29.696Z,28
2016-07-06T06:34:29.703Z,20
2016-07-06T06:35:29.734Z,24
2016-07-06T06:36:29.744Z,24
2016-07-06T06:37:29.761Z,20
2016-07-06T06:38:29.711Z,24
2016-07-06T06:39:29.758Z,24
2016-07-06T06:40:29.739Z,24
2016-07-06T06:41:29.764Z,20
2016-07-06T06:42:29.801Z,16
2016-07-06T06:43:29.778Z,16
2016-07-06T06:44:30.406Z,24
2016-07-06T06:45:29.814Z,24
2016-07-06T06:46:29.824Z,16
2016-07-06T06:47:29.823Z,24
2016-07-06T06:48:29.819Z,20
2016-07-06T06:49:29.840Z,24
2016-07-06T06:50:29.853Z,20
2016-07-06T06:51:29.855Z,20
2016-07-06T06:52:29.901Z,16
2016-07-06T06:53:30.496Z,16
2016-07-06T06:54:29.903Z,16
2016-07-06T06:55:29.898Z,20
2016-07-06T06:56:29.911Z,20
2016-07-06T06:57:29.952Z,28
2016-07-06T06:58:29.934Z,24
2016-07-06T06:59:29.934Z,28
2016-07-06T07:00:30.518Z,24
2016-07-06T07:01:29.957Z,24
2016-07-06T07:02:29.946Z,20
2016-07-06T07:03:29.996Z,20
2016-07-06T07:04:29.988Z,20
2016-07-06T07:05:29.987Z,20
2016-07-06T07:06:29.992Z,20
2016-07-06T07:07:29.998Z,20
2016-07-06T07:08:30.015Z,20
2016-07-06T07:09:30.024Z,24
2016-07-06T07:10:30.006Z,24
2016-07-06T07:11:30.058Z,24
2016-07-06T07:12:30.059Z,24
2016-07-06T07:13:30.056Z,16
2016-07-06T07:14:30.067Z,20
2016-07-06T07:15:30.070Z,28
2016-07-06T07:16:30.091Z,32
2016-07-06T07:17:30.103Z,28
2016-07-06T07:18:30.118Z,32
2016-07-06T07:19:30.151Z,24
2016-07-06T07:20:30.134Z,32
2016-07-06T07:21:30.133Z,28
2016-07-06T07:22:30.164Z,28
2016-07-06T07:23:30.179Z,28
2016-07-06T07:24:30.183Z,32
2016-07-06T07:25:30.166Z,36
2016-07-06T07:26:30.181Z,28
2016-07-06T07:27:30.216Z,24
2016-07-06T07:28:30.207Z,24
2016-07-06T07:29:30.228Z,28
2016-07-06T07:30:30.240Z,24
2016-07-06T07:31:30.239Z,24
2016-07-06T07:32:30.247Z,28
2016-07-06T07:33:30.280Z,28
2016-07-06T07:34:30.282Z,36
2016-07-06T07:35:30.283Z,28
2016-07-06T07:36:30.291Z,28
2016-07-06T07:37:30.288Z,28
2016-07-06T07:38:30.285Z,36
2016-07-06T07:39:30.301Z,36
2016-07-06T07:40:30.328Z,28
2016-07-06T07:41:30.346Z,24
2016-07-06T07:42:30.313Z,20
2016-07-06T07:43:30.324Z,20
2016-07-06T07:44:30.335Z,28
2016-07-06T07:45:30.373Z,32
2016-07-06T07:46:30.372Z,28
2016-07-06T07:47:30.387Z,36
2016-07-06T07:48:30.406Z,32
2016-07-06T07:49:30.430Z,32
2016-07-06T07:50:30.441Z,36
2016-07-06T07:51:30.438Z,36
2016-07-06T07:52:30.421Z,36
2016-07-06T07:53:30.414Z,32
2016-07-06T07:54:30.448Z,40
2016-07-06T07:55:30.459Z,32
2016-07-06T07:56:30.476Z,32
2016-07-06T07:57:30.505Z,32
2016-07-06T07:58:30.467Z,24
2016-07-06T07:59:30.468Z,24
2016-07-06T08:00:30.512Z,20
2016-07-06T08:01:30.532Z,24
2016-07-06T08:02:30.510Z,28
2016-07-06T08:03:30.547Z,28
2016-07-06T08:04:30.550Z,28
2016-07-06T08:05:30.565Z,36
2016-07-06T08:06:30.540Z,36
2016-07-06T08:07:30.575Z,36
2016-07-06T08:08:30.572Z,40
2016-07-06T08:09:30.622Z,28
2016-07-06T08:10:30.596Z,40
2016-07-06T08:11:30.630Z,36
2016-07-06T08:12:30.620Z,40
2016-07-06T08:13:30.609Z,36
2016-07-06T08:14:30.633Z,28
2016-07-06T08:15:30.642Z,28
2016-07-06T08:16:30.651Z,32
2016-07-06T08:17:30.638Z,32
2016-07-06T08:18:30.645Z,32
2016-07-06T08:19:30.654Z,28
2016-07-06T08:20:30.677Z,28
2016-07-06T08:21:30.676Z,32
2016-07-06T08:22:30.681Z,32
2016-07-06T08:23:30.728Z,36
2016-07-06T08:24:30.707Z,28
2016-07-06T08:25:30.740Z,40
2016-07-06T08:26:30.737Z,20
2016-07-06T08:27:30.919Z,16
2016-07-06T08:28:30.750Z,20
2016-07-06T08:29:30.779Z,28
2016-07-06T08:30:30.789Z,28
2016-07-06T08:31:30.790Z,32
2016-07-06T08:32:30.798Z,32
2016-07-06T08:33:30.787Z,24
2016-07-06T08:34:30.796Z,28
2016-07-06T08:35:30.828Z,36
2016-07-06T08:36:30.827Z,40
2016-07-06T08:37:30.827Z,36
2016-07-06T08:38:30.821Z,40
2016-07-06T08:39:30.872Z,40
2016-07-06T08:40:30.859Z,36
2016-07-06T08:41:30.869Z,40
2016-07-06T08:42:30.881Z,36
2016-07-06T08:43:30.894Z,40
2016-07-06T08:44:30.905Z,28
2016-07-06T08:45:30.905Z,28
2016-07-06T08:46:30.896Z,28
2016-07-06T08:47:31.542Z,28
2016-07-06T08:48:30.958Z,32
2016-07-06T08:49:30.948Z,40
2016-07-06T08:50:30.971Z,40
2016-07-06T08:51:30.987Z,28
2016-07-06T08:52:30.971Z,44
2016-07-06T08:53:30.982Z,32
2016-07-06T08:54:30.983Z,32
2016-07-06T08:55:31.008Z,32
2016-07-06T08:56:31.044Z,28
2016-07-06T08:57:31.010Z,44
2016-07-06T08:58:31.061Z,32
2016-07-06T08:59:31.066Z,24
2016-07-06T09:00:31.664Z,36
2016-07-06T09:01:31.086Z,32
2016-07-06T09:02:31.081Z,28
2016-07-06T09:03:31.097Z,28
2016-07-06T09:04:31.121Z,24
2016-07-06T09:05:31.118Z,24
2016-07-06T09:06:31.134Z,28
2016-07-06T09:07:31.123Z,32
2016-07-06T09:08:31.135Z,28
2016-07-06T09:09:31.146Z,24
2016-07-06T09:10:31.142Z,20
2016-07-06T09:11:31.181Z,20
2016-07-06T09:12:31.175Z,24
2016-07-06T09:13:31.190Z,24
2016-07-06T09:14:31.226Z,24
2016-07-06T09:15:31.182Z,24
2016-07-06T09:16:31.213Z,20
2016-07-06T09:17:31.219Z,20
2016-07-06T09:18:31.224Z,20
2016-07-06T09:19:31.277Z,16
2016-07-06T09:20:31.267Z,20
2016-07-06T09:21:31.278Z,20
2016-07-06T09:22:31.297Z,16
2016-07-06T09:23:31.290Z,16
2016-07-06T09:24:31.297Z,16
2016-07-06T09:25:31.292Z,20
2016-07-06T09:26:31.299Z,20
2016-07-06T09:27:31.388Z,16
2016-07-06T09:28:31.327Z,16
2016-07-06T09:29:31.341Z,16
2016-07-06T09:30:31.344Z,16
2016-07-06T09:31:31.364Z,20
2016-07-06T09:32:31.345Z,24
2016-07-06T09:33:31.385Z,28
2016-07-06T09:34:31.395Z,40
2016-07-06T09:35:31.405Z,32
2016-07-06T09:36:31.398Z,32
2016-07-06T09:37:31.436Z,36
2016-07-06T09:38:31.416Z,36
2016-07-06T09:39:31.448Z,36
2016-07-06T09:40:31.458Z,36
2016-07-06T09:41:31.467Z,40
2016-07-06T09:42:31.473Z,44
2016-07-06T09:43:31.481Z,48
2016-07-06T09:44:31.503Z,36
2016-07-06T09:45:31.481Z,52
2016-07-06T09:46:31.498Z,32
2016-07-06T09:47:31.498Z,52
2016-07-06T09:48:31.508Z,32
2016-07-06T09:49:31.530Z,32
2016-07-06T09:50:31.556Z,32
2016-07-06T09:51:31.569Z,32
2016-07-06T09:52:31.578Z,36
2016-07-06T09:53:31.567Z,40
2016-07-06T09:54:31.588Z,40
2016-07-06T09:55:31.595Z,40
2016-07-06T09:56:31.581Z,36
2016-07-06T09:57:31.594Z,32
2016-07-06T09:58:31.597Z,32
2016-07-06T09:59:31.637Z,36
2016-07-06T10:00:31.633Z,36
2016-07-06T10:01:31.630Z,40
2016-07-06T10:02:31.663Z,44
2016-07-06T10:03:31.676Z,48
2016-07-06T10:04:31.674Z,44
2016-07-06T10:05:31.693Z,40
2016-07-06T10:06:31.689Z,40
2016-07-06T10:07:31.687Z,40
2016-07-06T10:08:31.698Z,40
2016-07-06T10:09:31.713Z,40
2016-07-06T10:10:31.690Z,36
2016-07-06T10:11:31.736Z,36
2016-07-06T10:12:31.755Z,32
2016-07-06T10:13:31.755Z,32
2016-07-06T10:14:31.763Z,32
2016-07-06T10:15:31.786Z,32
2016-07-06T10:16:31.796Z,32
2016-07-06T10:17:31.772Z,36
2016-07-06T10:18:31.788Z,36
2016-07-06T10:19:31.805Z,40
2016-07-06T10:20:31.834Z,36
2016-07-06T10:21:31.831Z,36
2016-07-06T10:22:31.844Z,36
2016-07-06T10:23:31.886Z,36
2016-07-06T10:24:31.856Z,36
2016-07-06T10:25:31.886Z,48
2016-07-06T10:26:31.905Z,44
2016-07-06T10:27:31.949Z,40
2016-07-06T10:28:31.866Z,36
2016-07-06T10:29:31.917Z,40
2016-07-06T10:30:31.926Z,56
2016-07-06T10:31:31.927Z,52
2016-07-06T10:32:31.960Z,56
2016-07-06T10:33:31.996Z,44
2016-07-06T10:34:31.964Z,48
2016-07-06T10:35:31.990Z,56
2016-07-06T10:36:32.010Z,52
2016-07-06T10:37:31.993Z,52
2016-07-06T10:38:31.989Z,52
2016-07-06T10:39:32.007Z,52
2016-07-06T10:40:32.025Z,48
2016-07-06T10:41:32.012Z,48
2016-07-06T10:42:32.060Z,44
2016-07-06T10:43:32.077Z,48
2016-07-06T10:44:32.061Z,48
2016-07-06T10:45:32.060Z,36
2016-07-06T10:46:32.058Z,32
2016-07-06T10:47:32.094Z,36
2016-07-06T10:48:32.072Z,40
2016-07-06T10:49:32.118Z,36
2016-07-06T10:50:32.129Z,40
2016-07-06T10:51:32.136Z,40
2016-07-06T10:52:32.139Z,36
2016-07-06T10:53:32.154Z,52
2016-07-06T10:54:32.164Z,28
2016-07-06T10:55:32.181Z,36
2016-07-06T10:56:32.776Z,32
2016-07-06T10:57:32.193Z,56
2016-07-06T10:58:32.181Z,60
2016-07-06T10:59:32.222Z,60
2016-07-06T11:00:32.234Z,60
2016-07-06T11:01:32.211Z,52
2016-07-06T11:02:32.247Z,60
2016-07-06T11:03:32.243Z,44
2016-07-06T11:04:32.275Z,52
2016-07-06T11:05:32.267Z,60
2016-07-06T11:06:32.267Z,60
2016-07-06T11:07:32.286Z,60
2016-07-06T11:08:32.292Z,44
2016-07-06T11:09:32.289Z,48
2016-07-06T11:10:32.324Z,32
2016-07-06T11:11:32.298Z,28
2016-07-06T11:12:32.324Z,32
2016-07-06T11:13:32.339Z,40
2016-07-06T11:14:32.332Z,40
2016-07-06T11:15:32.340Z,48
2016-07-06T11:16:32.354Z,36
2016-07-06T11:17:32.378Z,32
2016-07-06T11:18:32.377Z,36
2016-07-06T11:19:32.389Z,40
2016-07-06T11:20:32.390Z,40
2016-07-06T11:21:32.418Z,56
2016-07-06T11:22:32.431Z,44
2016-07-06T11:23:32.427Z,56
2016-07-06T11:24:32.434Z,40
2016-07-06T11:25:32.440Z,36
2016-07-06T11:26:32.479Z,32
2016-07-06T11:27:32.476Z,60
2016-07-06T11:28:32.464Z,56
2016-07-06T11:29:32.484Z,60
2016-07-06T11:30:32.471Z,32
2016-07-06T11:31:32.484Z,56
2016-07-06T11:32:32.484Z,40
2016-07-06T11:33:32.506Z,48
2016-07-06T11:34:32.530Z,48
2016-07-06T11:35:32.502Z,48
2016-07-06T11:36:32.529Z,52
2016-07-06T11:37:32.537Z,52
2016-07-06T11:38:32.518Z,56
2016-07-06T11:39:32.554Z,52
2016-07-06T11:40:32.550Z,56
2016-07-06T11:41:32.576Z,56
2016-07-06T11:42:32.599Z,52
2016-07-06T11:43:32.616Z,36
2016-07-06T11:44:32.574Z,68
2016-07-06T11:45:32.615Z,68
2016-07-06T11:46:32.610Z,40
2016-07-06T11:47:32.632Z,44
2016-07-06T11:48:32.616Z,68
2016-07-06T11:49:32.628Z,44
2016-07-06T11:50:32.632Z,36
2016-07-06T11:51:32.621Z,36
2016-07-06T11:52:32.663Z,48
2016-07-06T11:53:32.639Z,48
2016-07-06T11:54:32.671Z,44
2016-07-06T11:55:32.663Z,40
2016-07-06T11:56:32.679Z,44
2016-07-06T11:57:32.697Z,48
2016-07-06T11:58:32.698Z,44
2016-07-06T11:59:32.717Z,76
2016-07-06T12:00:32.730Z,68
2016-07-06T12:01:32.737Z,48
2016-07-06T12:02:32.728Z,44
2016-07-06T12:03:32.767Z,48
2016-07-06T12:04:32.753Z,76
2016-07-06T12:05:32.777Z,72
2016-07-06T12:06:32.771Z,68
2016-07-06T12:07:32.777Z,68
2016-07-06T12:08:32.784Z,64
2016-07-06T12:09:32.823Z,60
2016-07-06T12:10:32.823Z,48
2016-07-06T12:11:32.824Z,52
2016-07-06T12:12:32.886Z,52
2016-07-06T12:13:32.844Z,52
2016-07-06T12:14:32.852Z,48
2016-07-06T12:15:32.832Z,52
2016-07-06T12:16:32.849Z,48
2016-07-06T12:17:32.880Z,44
2016-07-06T12:18:32.897Z,48
2016-07-06T12:19:32.917Z,48
2016-07-06T12:20:32.943Z,48
2016-07-06T12:21:32.881Z,36
2016-07-06T12:22:32.899Z,40
2016-07-06T12:23:33.555Z,48
2016-07-06T12:24:32.947Z,56
2016-07-06T12:25:32.951Z,40
2016-07-06T12:26:32.957Z,44
2016-07-06T12:27:32.964Z,32
2016-07-06T12:28:32.959Z,36
2016-07-06T12:29:32.978Z,52
2016-07-06T12:30:32.993Z,52
2016-07-06T12:31:33.002Z,28
2016-07-06T12:32:33.026Z,28
2016-07-06T12:33:33.051Z,28
2016-07-06T12:34:33.039Z,52
2016-07-06T12:35:33.063Z,56
2016-07-06T12:36:33.008Z,40
2016-07-06T12:37:33.074Z,64
2016-07-06T12:38:33.075Z,56
2016-07-06T12:39:33.059Z,48
2016-07-06T12:40:33.089Z,56
2016-07-06T12:41:33.095Z,60
2016-07-06T12:42:33.097Z,48
2016-07-06T12:43:33.107Z,56
2016-07-06T12:44:33.115Z,48
2016-07-06T12:45:33.117Z,44
2016-07-06T12:46:33.158Z,40
2016-07-06T12:47:33.156Z,56
2016-07-06T12:48:33.146Z,52
2016-07-06T12:49:33.156Z,60
2016-07-06T12:50:33.191Z,60
2016-07-06T12:51:33.161Z,36
2016-07-06T12:52:33.209Z,32
2016-07-06T12:53:33.206Z,32
2016-07-06T12:54:33.223Z,40
2016-07-06T12:55:33.229Z,52
2016-07-06T12:56:33.195Z,52
2016-07-06T12:57:33.243Z,48
2016-07-06T12:58:33.271Z,48
2016-07-06T12:59:33.249Z,52
2016-07-06T13:00:33.297Z,48
2016-07-06T13:01:33.293Z,52
2016-07-06T13:02:33.267Z,44
2016-07-06T13:03:33.281Z,44
2016-07-06T13:04:33.283Z,48
2016-07-06T13:05:33.325Z,48
2016-07-06T13:06:33.317Z,48
2016-07-06T13:07:33.323Z,48
2016-07-06T13:08:33.350Z,48
2016-07-06T13:09:33.373Z,44
2016-07-06T13:10:33.364Z,44
2016-07-06T13:11:33.384Z,44
2016-07-06T13:12:33.392Z,44
2016-07-06T13:13:33.379Z,40
2016-07-06T13:14:33.411Z,44
2016-07-06T13:15:33.406Z,44
2016-07-06T13:16:33.426Z,52
2016-07-06T13:17:33.434Z,52
2016-07-06T13:18:33.460Z,48
2016-07-06T13:19:33.443Z,48
2016-07-06T13:20:33.477Z,52
2016-07-06T13:21:33.469Z,36
2016-07-06T13:22:33.478Z,48
2016-07-06T13:23:33.493Z,48
2016-07-06T13:24:33.474Z,48
2016-07-06T13:25:33.486Z,48
2016-07-06T13:26:33.511Z,44
2016-07-06T13:27:33.519Z,40
2016-07-06T13:28:33.588Z,28
2016-07-06T13:29:33.541Z,40
2016-07-06T13:30:33.527Z,48
2016-07-06T13:31:33.553Z,52
2016-07-06T13:32:33.533Z,36
2016-07-06T13:33:33.571Z,32
2016-07-06T13:34:33.584Z,40
2016-07-06T13:35:33.586Z,44
2016-07-06T13:36:33.597Z,44
2016-07-06T13:37:33.606Z,44
2016-07-06T13:38:33.616Z,44
2016-07-06T13:39:33.623Z,40
2016-07-06T13:40:33.632Z,44
2016-07-06T13:41:33.615Z,44
2016-07-06T13:42:33.660Z,44
2016-07-06T13:43:33.675Z,40
2016-07-06T13:44:33.688Z,44
2016-07-06T13:45:33.678Z,52
2016-07-06T13:46:33.689Z,48
2016-07-06T13:47:33.698Z,48
2016-07-06T13:48:33.713Z,48
2016-07-06T13:49:33.715Z,48
2016-07-06T13:50:33.712Z,48
2016-07-06T13:51:33.738Z,40
2016-07-06T13:52:33.769Z,44
2016-07-06T13:53:33.773Z,44
2016-07-06T13:54:33.795Z,44
2016-07-06T13:55:33.779Z,36
2016-07-06T13:56:33.798Z,36
2016-07-06T13:57:33.814Z,40
2016-07-06T13:58:33.836Z,44
2016-07-06T13:59:33.836Z,40
2016-07-06T14:00:33.851Z,40
2016-07-06T14:01:33.857Z,40
2016-07-06T14:02:33.874Z,40
2016-07-06T14:03:33.879Z,40
2016-07-06T14:04:33.883Z,40
2016-07-06T14:05:33.876Z,36
2016-07-06T14:06:33.902Z,36
2016-07-06T14:07:33.910Z,32
2016-07-06T14:08:33.886Z,28
2016-07-06T14:09:33.911Z,32
2016-07-06T14:10:33.944Z,32
2016-07-06T14:11:33.972Z,36
2016-07-06T14:12:33.990Z,32
2016-07-06T14:13:33.997Z,36
2016-07-06T14:14:33.977Z,40
2016-07-06T14:15:33.983Z,40
2016-07-06T14:16:33.963Z,36
2016-07-06T14:17:34.032Z,32
2016-07-06T14:18:34.622Z,36
2016-07-06T14:19:34.018Z,28
2016-07-06T14:20:34.038Z,32
2016-07-06T14:21:34.051Z,28
2016-07-06T14:22:34.058Z,28
2016-07-06T14:23:34.053Z,24
2016-07-06T14:24:34.085Z,24
2016-07-06T14:25:34.101Z,28
2016-07-06T14:26:34.100Z,32